sensor_id;sensor_type;location;lat;lon;timestamp;temperature;humidity
336;DHT22;156;48.738;9.228;2022-10-16T00:01:05;16.00;99.90
336;DHT22;156;48.738;9.228;2022-10-16T00:03:34;16.00;99.90
336;DHT22;156;48.738;9.228;2022-10-16T00:06:01;16.00;99.90
336;DHT22;156;48.738;9.228;2022-10-16T00:08:28;16.00;99.90
336;DHT22;156;48.738;9.228;2022-10-16T00:10:59;16.00;99.90
336;DHT22;156;48.738;9.228;2022-10-16T00:13:27;16.00;99.90
336;DHT22;156;48.738;9.228;2022-10-16T00:15:55;15.90;99.90
336;DHT22;156;48.738;9.228;2022-10-16T00:18:22;16.00;99.90
336;DHT22;156;48.738;9.228;2022-10-16T00:20:51;15.90;99.90
336;DHT22;156;48.738;9.228;2022-10-16T00:23:18;15.90;99.90
336;DHT22;156;48.738;9.228;2022-10-16T00:25:53;15.90;99.90
336;DHT22;156;48.738;9.228;2022-10-16T00:28:20;15.90;99.90
336;DHT22;156;48.738;9.228;2022-10-16T00:30:47;15.80;99.90
336;DHT22;156;48.738;9.228;2022-10-16T00:33:14;15.80;99.90
336;DHT22;156;48.738;9.228;2022-10-16T00:35:41;15.80;99.90
336;DHT22;156;48.738;9.228;2022-10-16T00:38:09;15.80;99.90
336;DHT22;156;48.738;9.228;2022-10-16T00:40:36;15.70;99.90
336;DHT22;156;48.738;9.228;2022-10-16T00:43:04;15.70;99.90
336;DHT22;156;48.738;9.228;2022-10-16T00:45:31;15.60;99.90
336;DHT22;156;48.738;9.228;2022-10-16T00:47:58;15.50;99.90
336;DHT22;156;48.738;9.228;2022-10-16T00:50:28;15.50;99.90
336;DHT22;156;48.738;9.228;2022-10-16T00:52:56;15.50;99.90
336;DHT22;156;48.738;9.228;2022-10-16T00:55:26;15.40;99.90
336;DHT22;156;48.738;9.228;2022-10-16T00:57:53;15.50;99.90
336;DHT22;156;48.738;9.228;2022-10-16T01:00:24;15.40;99.90
336;DHT22;156;48.738;9.228;2022-10-16T01:02:52;15.40;99.90
336;DHT22;156;48.738;9.228;2022-10-16T01:05:21;15.40;99.90
336;DHT22;156;48.738;9.228;2022-10-16T01:07:54;15.40;99.90
336;DHT22;156;48.738;9.228;2022-10-16T01:10:30;15.40;99.90
336;DHT22;156;48.738;9.228;2022-10-16T01:13:02;15.40;99.90
336;DHT22;156;48.738;9.228;2022-10-16T01:15:34;15.40;99.90
336;DHT22;156;48.738;9.228;2022-10-16T01:18:07;15.40;99.90
336;DHT22;156;48.738;9.228;2022-10-16T01:20:37;15.40;99.90
336;DHT22;156;48.738;9.228;2022-10-16T01:23:19;15.40;99.90
336;DHT22;156;48.738;9.228;2022-10-16T01:26:03;15.40;99.90
336;DHT22;156;48.738;9.228;2022-10-16T01:28:39;15.40;99.90
336;DHT22;156;48.738;9.228;2022-10-16T01:31:09;15.40;99.90
336;DHT22;156;48.738;9.228;2022-10-16T01:33:40;15.40;99.90
336;DHT22;156;48.738;9.228;2022-10-16T01:36:11;15.40;99.90
336;DHT22;156;48.738;9.228;2022-10-16T01:38:40;15.40;99.90
336;DHT22;156;48.738;9.228;2022-10-16T01:41:11;15.30;99.90
336;DHT22;156;48.738;9.228;2022-10-16T01:43:43;15.30;99.90
336;DHT22;156;48.738;9.228;2022-10-16T01:46:13;15.40;99.90
336;DHT22;156;48.738;9.228;2022-10-16T01:48:42;15.30;99.90
336;DHT22;156;48.738;9.228;2022-10-16T01:51:12;15.30;99.90
336;DHT22;156;48.738;9.228;2022-10-16T01:53:40;15.40;99.90
336;DHT22;156;48.738;9.228;2022-10-16T01:56:09;15.40;99.90
336;DHT22;156;48.738;9.228;2022-10-16T01:58:43;15.40;99.90
336;DHT22;156;48.738;9.228;2022-10-16T02:01:13;15.40;99.90
336;DHT22;156;48.738;9.228;2022-10-16T02:03:43;15.40;99.90
336;DHT22;156;48.738;9.228;2022-10-16T02:06:13;15.40;99.90
336;DHT22;156;48.738;9.228;2022-10-16T02:08:40;15.40;99.90
336;DHT22;156;48.738;9.228;2022-10-16T02:11:09;15.40;99.90
336;DHT22;156;48.738;9.228;2022-10-16T02:13:39;15.40;99.90
336;DHT22;156;48.738;9.228;2022-10-16T02:16:08;15.40;99.90
336;DHT22;156;48.738;9.228;2022-10-16T02:18:35;15.40;99.90
336;DHT22;156;48.738;9.228;2022-10-16T02:21:16;15.40;99.90
336;DHT22;156;48.738;9.228;2022-10-16T02:23:50;15.40;99.90
336;DHT22;156;48.738;9.228;2022-10-16T02:26:26;15.50;99.90
336;DHT22;156;48.738;9.228;2022-10-16T02:28:58;15.40;99.90
336;DHT22;156;48.738;9.228;2022-10-16T02:31:31;15.40;99.90
336;DHT22;156;48.738;9.228;2022-10-16T02:34:00;15.40;99.90
336;DHT22;156;48.738;9.228;2022-10-16T02:36:29;15.30;99.90
336;DHT22;156;48.738;9.228;2022-10-16T02:38:56;15.30;99.90
336;DHT22;156;48.738;9.228;2022-10-16T02:41:25;15.30;99.90
336;DHT22;156;48.738;9.228;2022-10-16T02:43:52;15.30;99.90
336;DHT22;156;48.738;9.228;2022-10-16T02:46:20;15.30;99.90
336;DHT22;156;48.738;9.228;2022-10-16T02:48:48;15.20;99.90
336;DHT22;156;48.738;9.228;2022-10-16T02:51:15;15.20;99.90
336;DHT22;156;48.738;9.228;2022-10-16T02:53:42;15.20;99.90
336;DHT22;156;48.738;9.228;2022-10-16T02:56:09;15.20;99.90
336;DHT22;156;48.738;9.228;2022-10-16T02:58:36;15.20;99.90
336;DHT22;156;48.738;9.228;2022-10-16T03:01:03;15.20;99.90
336;DHT22;156;48.738;9.228;2022-10-16T03:03:31;15.20;99.90
336;DHT22;156;48.738;9.228;2022-10-16T03:06:00;15.20;99.90
336;DHT22;156;48.738;9.228;2022-10-16T03:08:26;15.10;99.90
336;DHT22;156;48.738;9.228;2022-10-16T03:10:53;15.10;99.90
336;DHT22;156;48.738;9.228;2022-10-16T03:13:20;15.10;99.90
336;DHT22;156;48.738;9.228;2022-10-16T03:15:47;15.10;99.90
336;DHT22;156;48.738;9.228;2022-10-16T03:18:14;15.10;99.90
336;DHT22;156;48.738;9.228;2022-10-16T03:20:42;15.10;99.90
336;DHT22;156;48.738;9.228;2022-10-16T03:23:11;15.10;99.90
336;DHT22;156;48.738;9.228;2022-10-16T03:25:38;15.10;99.90
336;DHT22;156;48.738;9.228;2022-10-16T03:28:05;15.20;99.90
336;DHT22;156;48.738;9.228;2022-10-16T03:30:32;15.10;99.90
336;DHT22;156;48.738;9.228;2022-10-16T03:32:59;15.10;99.90
336;DHT22;156;48.738;9.228;2022-10-16T03:35:26;15.10;99.90
336;DHT22;156;48.738;9.228;2022-10-16T03:37:53;15.10;99.90
336;DHT22;156;48.738;9.228;2022-10-16T03:40:21;15.10;99.90
336;DHT22;156;48.738;9.228;2022-10-16T03:42:48;15.10;99.90
336;DHT22;156;48.738;9.228;2022-10-16T03:45:15;15.10;99.90
336;DHT22;156;48.738;9.228;2022-10-16T03:47:41;15.20;99.90
336;DHT22;156;48.738;9.228;2022-10-16T03:50:09;15.00;99.90
336;DHT22;156;48.738;9.228;2022-10-16T03:52:35;15.00;99.90
336;DHT22;156;48.738;9.228;2022-10-16T03:55:03;15.00;99.90
336;DHT22;156;48.738;9.228;2022-10-16T03:57:31;15.00;99.90
336;DHT22;156;48.738;9.228;2022-10-16T03:59:58;14.90;99.90
336;DHT22;156;48.738;9.228;2022-10-16T04:02:25;14.80;99.90
336;DHT22;156;48.738;9.228;2022-10-16T04:04:52;14.80;99.90
336;DHT22;156;48.738;9.228;2022-10-16T04:07:19;14.80;99.90
336;DHT22;156;48.738;9.228;2022-10-16T04:09:46;14.90;99.90
336;DHT22;156;48.738;9.228;2022-10-16T04:12:12;14.90;99.90
336;DHT22;156;48.738;9.228;2022-10-16T04:14:41;14.90;99.90
336;DHT22;156;48.738;9.228;2022-10-16T04:17:07;15.00;99.90
336;DHT22;156;48.738;9.228;2022-10-16T04:19:35;15.10;99.90
336;DHT22;156;48.738;9.228;2022-10-16T04:22:03;15.10;99.90
336;DHT22;156;48.738;9.228;2022-10-16T04:24:29;15.10;99.90
336;DHT22;156;48.738;9.228;2022-10-16T04:26:56;15.10;99.90
336;DHT22;156;48.738;9.228;2022-10-16T04:29:23;15.20;99.90
336;DHT22;156;48.738;9.228;2022-10-16T04:31:51;15.20;99.90
336;DHT22;156;48.738;9.228;2022-10-16T04:34:18;15.20;99.90
336;DHT22;156;48.738;9.228;2022-10-16T04:36:47;15.10;99.90
336;DHT22;156;48.738;9.228;2022-10-16T04:39:14;15.20;99.90
336;DHT22;156;48.738;9.228;2022-10-16T04:41:42;15.20;99.90
336;DHT22;156;48.738;9.228;2022-10-16T04:44:09;15.20;99.90
336;DHT22;156;48.738;9.228;2022-10-16T04:46:35;15.10;99.90
336;DHT22;156;48.738;9.228;2022-10-16T04:49:04;15.10;99.90
336;DHT22;156;48.738;9.228;2022-10-16T04:51:31;15.10;99.90
336;DHT22;156;48.738;9.228;2022-10-16T04:53:58;15.20;99.90
336;DHT22;156;48.738;9.228;2022-10-16T04:56:25;15.10;99.90
336;DHT22;156;48.738;9.228;2022-10-16T04:58:52;15.00;99.90
336;DHT22;156;48.738;9.228;2022-10-16T05:01:18;15.00;99.90
336;DHT22;156;48.738;9.228;2022-10-16T05:03:46;15.00;99.90
336;DHT22;156;48.738;9.228;2022-10-16T05:06:14;14.90;99.90
336;DHT22;156;48.738;9.228;2022-10-16T05:08:41;15.00;99.90
336;DHT22;156;48.738;9.228;2022-10-16T05:11:07;15.00;99.90
336;DHT22;156;48.738;9.228;2022-10-16T05:13:34;15.00;99.90
336;DHT22;156;48.738;9.228;2022-10-16T05:16:01;15.10;99.90
336;DHT22;156;48.738;9.228;2022-10-16T05:18:28;15.10;99.90
336;DHT22;156;48.738;9.228;2022-10-16T05:20:55;15.20;99.90
336;DHT22;156;48.738;9.228;2022-10-16T05:23:23;15.10;99.90
336;DHT22;156;48.738;9.228;2022-10-16T05:25:54;15.20;99.90
336;DHT22;156;48.738;9.228;2022-10-16T05:28:24;15.20;99.90
336;DHT22;156;48.738;9.228;2022-10-16T05:30:51;15.20;99.90
336;DHT22;156;48.738;9.228;2022-10-16T05:33:20;15.30;99.90
336;DHT22;156;48.738;9.228;2022-10-16T05:35:47;15.20;99.90
336;DHT22;156;48.738;9.228;2022-10-16T05:38:18;15.20;99.90
336;DHT22;156;48.738;9.228;2022-10-16T05:40:52;15.20;99.90
336;DHT22;156;48.738;9.228;2022-10-16T05:43:19;15.20;99.90
336;DHT22;156;48.738;9.228;2022-10-16T05:45:54;15.20;99.90
336;DHT22;156;48.738;9.228;2022-10-16T05:48:21;15.20;99.90
336;DHT22;156;48.738;9.228;2022-10-16T05:50:48;15.20;99.90
336;DHT22;156;48.738;9.228;2022-10-16T05:53:22;15.20;99.90
336;DHT22;156;48.738;9.228;2022-10-16T05:55:53;15.20;99.90
336;DHT22;156;48.738;9.228;2022-10-16T05:58:20;15.20;99.90
336;DHT22;156;48.738;9.228;2022-10-16T06:00:53;15.20;99.90
336;DHT22;156;48.738;9.228;2022-10-16T06:03:20;15.20;99.90
336;DHT22;156;48.738;9.228;2022-10-16T06:05:47;15.20;99.90
336;DHT22;156;48.738;9.228;2022-10-16T06:08:14;15.20;99.90
336;DHT22;156;48.738;9.228;2022-10-16T06:10:41;15.20;99.90
336;DHT22;156;48.738;9.228;2022-10-16T06:13:10;15.20;99.90
336;DHT22;156;48.738;9.228;2022-10-16T06:15:38;15.20;99.90
336;DHT22;156;48.738;9.228;2022-10-16T06:18:07;15.20;99.90
336;DHT22;156;48.738;9.228;2022-10-16T06:20:34;15.20;99.90
336;DHT22;156;48.738;9.228;2022-10-16T06:23:01;15.20;99.90
336;DHT22;156;48.738;9.228;2022-10-16T06:25:29;15.20;99.90
336;DHT22;156;48.738;9.228;2022-10-16T06:27:57;15.20;99.90
336;DHT22;156;48.738;9.228;2022-10-16T06:30:26;15.00;99.90
336;DHT22;156;48.738;9.228;2022-10-16T06:32:53;14.90;99.90
336;DHT22;156;48.738;9.228;2022-10-16T06:35:21;14.80;99.90
336;DHT22;156;48.738;9.228;2022-10-16T06:37:48;14.90;99.90
336;DHT22;156;48.738;9.228;2022-10-16T06:40:15;14.90;99.90
336;DHT22;156;48.738;9.228;2022-10-16T06:42:42;14.90;99.90
336;DHT22;156;48.738;9.228;2022-10-16T06:45:10;15.10;99.90
336;DHT22;156;48.738;9.228;2022-10-16T06:47:40;15.10;99.90
336;DHT22;156;48.738;9.228;2022-10-16T06:50:08;15.20;99.90
336;DHT22;156;48.738;9.228;2022-10-16T06:52:35;15.30;99.90
336;DHT22;156;48.738;9.228;2022-10-16T06:55:03;15.40;99.90
336;DHT22;156;48.738;9.228;2022-10-16T06:57:31;15.50;99.90
336;DHT22;156;48.738;9.228;2022-10-16T06:59:59;15.50;99.90
336;DHT22;156;48.738;9.228;2022-10-16T07:02:26;15.70;99.90
336;DHT22;156;48.738;9.228;2022-10-16T07:04:54;15.70;99.90
336;DHT22;156;48.738;9.228;2022-10-16T07:07:22;15.80;99.90
336;DHT22;156;48.738;9.228;2022-10-16T07:09:50;15.80;99.90
336;DHT22;156;48.738;9.228;2022-10-16T07:12:20;15.90;99.90
336;DHT22;156;48.738;9.228;2022-10-16T07:14:52;15.90;99.90
336;DHT22;156;48.738;9.228;2022-10-16T07:17:20;16.00;99.90
336;DHT22;156;48.738;9.228;2022-10-16T07:19:48;16.10;99.90
336;DHT22;156;48.738;9.228;2022-10-16T07:22:20;16.10;99.90
336;DHT22;156;48.738;9.228;2022-10-16T07:24:49;16.00;99.90
336;DHT22;156;48.738;9.228;2022-10-16T07:27:21;16.00;99.90
336;DHT22;156;48.738;9.228;2022-10-16T07:33:27;15.70;99.90
336;DHT22;156;48.738;9.228;2022-10-16T07:36:27;16.00;99.90
336;DHT22;156;48.738;9.228;2022-10-16T07:42:37;16.20;99.90
336;DHT22;156;48.738;9.228;2022-10-16T07:45:16;16.00;99.90
336;DHT22;156;48.738;9.228;2022-10-16T07:49:02;16.10;99.90
336;DHT22;156;48.738;9.228;2022-10-16T07:51:43;16.40;99.90
336;DHT22;156;48.738;9.228;2022-10-16T07:58:11;16.60;99.90
336;DHT22;156;48.738;9.228;2022-10-16T08:04:10;15.90;99.90
336;DHT22;156;48.738;9.228;2022-10-16T08:07:34;16.40;99.90
336;DHT22;156;48.738;9.228;2022-10-16T08:10:47;16.50;99.90
336;DHT22;156;48.738;9.228;2022-10-16T08:13:55;15.80;99.90
336;DHT22;156;48.738;9.228;2022-10-16T08:16:36;16.80;99.90
336;DHT22;156;48.738;9.228;2022-10-16T08:25:08;16.90;99.90
336;DHT22;156;48.738;9.228;2022-10-16T08:28:07;17.90;99.90
336;DHT22;156;48.738;9.228;2022-10-16T08:31:11;17.00;99.90
336;DHT22;156;48.738;9.228;2022-10-16T08:34:24;17.20;99.90
336;DHT22;156;48.738;9.228;2022-10-16T08:37:03;17.20;99.90
336;DHT22;156;48.738;9.228;2022-10-16T08:39:49;17.40;99.90
336;DHT22;156;48.738;9.228;2022-10-16T08:49:02;18.00;99.90
336;DHT22;156;48.738;9.228;2022-10-16T08:55:09;17.30;99.90
336;DHT22;156;48.738;9.228;2022-10-16T09:01:44;17.40;99.90
336;DHT22;156;48.738;9.228;2022-10-16T09:04:54;17.60;99.90
336;DHT22;156;48.738;9.228;2022-10-16T09:08:19;17.40;99.90
336;DHT22;156;48.738;9.228;2022-10-16T09:11:41;17.60;99.90
336;DHT22;156;48.738;9.228;2022-10-16T09:15:07;17.80;99.90
336;DHT22;156;48.738;9.228;2022-10-16T09:18:45;17.70;99.90
336;DHT22;156;48.738;9.228;2022-10-16T09:28:24;18.20;96.60
336;DHT22;156;48.738;9.228;2022-10-16T09:31:25;17.50;98.40
336;DHT22;156;48.738;9.228;2022-10-16T09:34:02;18.20;97.80
336;DHT22;156;48.738;9.228;2022-10-16T09:36:58;18.20;97.70
336;DHT22;156;48.738;9.228;2022-10-16T09:39:52;18.20;93.90
336;DHT22;156;48.738;9.228;2022-10-16T09:43:01;18.20;93.70
336;DHT22;156;48.738;9.228;2022-10-16T09:45:53;18.50;91.60
336;DHT22;156;48.738;9.228;2022-10-16T09:48:23;18.30;92.00
336;DHT22;156;48.738;9.228;2022-10-16T09:51:02;18.70;92.30
336;DHT22;156;48.738;9.228;2022-10-16T09:53:39;18.80;73.60
336;DHT22;156;48.738;9.228;2022-10-16T09:59:15;19.20;79.10
336;DHT22;156;48.738;9.228;2022-10-16T10:01:51;19.50;67.20
336;DHT22;156;48.738;9.228;2022-10-16T10:04:20;19.50;64.60
336;DHT22;156;48.738;9.228;2022-10-16T10:06:49;19.70;60.20
336;DHT22;156;48.738;9.228;2022-10-16T10:09:19;19.80;61.60
336;DHT22;156;48.738;9.228;2022-10-16T10:11:49;20.00;55.50
336;DHT22;156;48.738;9.228;2022-10-16T10:14:35;20.20;43.70
336;DHT22;156;48.738;9.228;2022-10-16T10:17:17;20.10;47.20
336;DHT22;156;48.738;9.228;2022-10-16T10:19:48;20.20;43.50
336;DHT22;156;48.738;9.228;2022-10-16T10:22:24;20.30;38.50
336;DHT22;156;48.738;9.228;2022-10-16T10:25:14;20.50;33.80
336;DHT22;156;48.738;9.228;2022-10-16T10:27:52;20.60;20.80
336;DHT22;156;48.738;9.228;2022-10-16T10:30:25;20.70;9.20
336;DHT22;156;48.738;9.228;2022-10-16T10:33:09;20.70;2.30
336;DHT22;156;48.738;9.228;2022-10-16T10:35:45;20.70;2.60
336;DHT22;156;48.738;9.228;2022-10-16T10:38:25;20.80;1.00
336;DHT22;156;48.738;9.228;2022-10-16T10:40:58;20.80;1.00
336;DHT22;156;48.738;9.228;2022-10-16T10:43:40;20.90;1.00
336;DHT22;156;48.738;9.228;2022-10-16T10:46:16;20.80;1.00
336;DHT22;156;48.738;9.228;2022-10-16T10:49:14;21.00;1.00
336;DHT22;156;48.738;9.228;2022-10-16T10:51:51;21.00;1.00
336;DHT22;156;48.738;9.228;2022-10-16T10:54:26;21.00;1.00
336;DHT22;156;48.738;9.228;2022-10-16T10:56:58;21.00;1.00
336;DHT22;156;48.738;9.228;2022-10-16T10:59:48;21.00;1.00
336;DHT22;156;48.738;9.228;2022-10-16T11:02:26;21.10;1.00
336;DHT22;156;48.738;9.228;2022-10-16T11:05:21;21.10;1.00
336;DHT22;156;48.738;9.228;2022-10-16T11:07:54;21.30;1.00
336;DHT22;156;48.738;9.228;2022-10-16T11:10:27;21.30;1.00
336;DHT22;156;48.738;9.228;2022-10-16T11:12:58;21.40;1.00
336;DHT22;156;48.738;9.228;2022-10-16T11:15:30;21.60;1.00
336;DHT22;156;48.738;9.228;2022-10-16T11:18:02;21.60;1.00
336;DHT22;156;48.738;9.228;2022-10-16T11:20:36;21.40;1.00
336;DHT22;156;48.738;9.228;2022-10-16T11:23:10;21.70;1.00
336;DHT22;156;48.738;9.228;2022-10-16T11:25:39;21.90;1.00
336;DHT22;156;48.738;9.228;2022-10-16T11:28:10;22.00;1.00
336;DHT22;156;48.738;9.228;2022-10-16T11:30:42;22.00;1.00
336;DHT22;156;48.738;9.228;2022-10-16T11:33:23;22.20;1.00
336;DHT22;156;48.738;9.228;2022-10-16T11:35:55;22.30;1.00
336;DHT22;156;48.738;9.228;2022-10-16T11:38:34;22.40;1.00
336;DHT22;156;48.738;9.228;2022-10-16T11:41:20;22.40;1.00
336;DHT22;156;48.738;9.228;2022-10-16T11:43:56;22.50;1.00
336;DHT22;156;48.738;9.228;2022-10-16T11:46:27;22.40;1.00
336;DHT22;156;48.738;9.228;2022-10-16T11:49:00;22.20;1.00
336;DHT22;156;48.738;9.228;2022-10-16T11:51:35;22.20;1.00
336;DHT22;156;48.738;9.228;2022-10-16T11:54:08;22.20;1.00
336;DHT22;156;48.738;9.228;2022-10-16T11:56:42;22.40;1.00
336;DHT22;156;48.738;9.228;2022-10-16T11:59:20;22.70;1.00
336;DHT22;156;48.738;9.228;2022-10-16T12:01:53;22.90;1.00
336;DHT22;156;48.738;9.228;2022-10-16T12:04:26;23.00;1.00
336;DHT22;156;48.738;9.228;2022-10-16T12:07:03;23.30;1.00
336;DHT22;156;48.738;9.228;2022-10-16T12:09:32;24.20;1.00
336;DHT22;156;48.738;9.228;2022-10-16T12:12:01;24.90;1.00
336;DHT22;156;48.738;9.228;2022-10-16T12:14:37;25.70;1.00
336;DHT22;156;48.738;9.228;2022-10-16T12:17:24;26.00;1.00
336;DHT22;156;48.738;9.228;2022-10-16T12:19:59;26.70;1.00
336;DHT22;156;48.738;9.228;2022-10-16T12:22:29;26.80;1.00
336;DHT22;156;48.738;9.228;2022-10-16T12:24:57;26.90;1.00
336;DHT22;156;48.738;9.228;2022-10-16T12:27:28;27.20;1.00
336;DHT22;156;48.738;9.228;2022-10-16T12:29:57;27.40;1.00
336;DHT22;156;48.738;9.228;2022-10-16T12:32:31;26.90;1.00
336;DHT22;156;48.738;9.228;2022-10-16T12:35:03;26.70;1.00
336;DHT22;156;48.738;9.228;2022-10-16T12:37:34;26.70;1.00
336;DHT22;156;48.738;9.228;2022-10-16T12:40:12;27.00;1.00
336;DHT22;156;48.738;9.228;2022-10-16T12:42:40;27.70;1.00
336;DHT22;156;48.738;9.228;2022-10-16T12:45:24;27.30;1.00
336;DHT22;156;48.738;9.228;2022-10-16T12:47:54;27.20;1.00
336;DHT22;156;48.738;9.228;2022-10-16T12:50:30;27.10;1.00
336;DHT22;156;48.738;9.228;2022-10-16T12:53:00;27.20;1.00
336;DHT22;156;48.738;9.228;2022-10-16T12:55:32;27.40;1.00
336;DHT22;156;48.738;9.228;2022-10-16T12:58:21;27.50;1.00
336;DHT22;156;48.738;9.228;2022-10-16T13:00:56;27.20;1.00
336;DHT22;156;48.738;9.228;2022-10-16T13:03:48;26.50;1.00
336;DHT22;156;48.738;9.228;2022-10-16T13:06:27;25.70;1.00
336;DHT22;156;48.738;9.228;2022-10-16T13:12:02;24.90;1.00
336;DHT22;156;48.738;9.228;2022-10-16T13:14:46;24.60;1.00
336;DHT22;156;48.738;9.228;2022-10-16T13:17:21;24.50;1.00
336;DHT22;156;48.738;9.228;2022-10-16T13:19:58;24.70;1.00
336;DHT22;156;48.738;9.228;2022-10-16T13:22:32;25.00;1.00
336;DHT22;156;48.738;9.228;2022-10-16T13:25:18;25.10;1.00
336;DHT22;156;48.738;9.228;2022-10-16T13:27:54;25.30;1.00
336;DHT22;156;48.738;9.228;2022-10-16T13:30:24;25.20;1.00
336;DHT22;156;48.738;9.228;2022-10-16T13:32:58;25.30;1.00
336;DHT22;156;48.738;9.228;2022-10-16T13:35:30;25.50;1.00
336;DHT22;156;48.738;9.228;2022-10-16T13:38:11;24.90;1.00
336;DHT22;156;48.738;9.228;2022-10-16T13:40:54;24.90;1.00
336;DHT22;156;48.738;9.228;2022-10-16T13:43:24;24.80;1.00
336;DHT22;156;48.738;9.228;2022-10-16T13:45:56;24.80;1.00
336;DHT22;156;48.738;9.228;2022-10-16T13:48:23;24.80;1.00
336;DHT22;156;48.738;9.228;2022-10-16T13:51:04;24.70;1.00
336;DHT22;156;48.738;9.228;2022-10-16T13:53:33;24.70;1.00
336;DHT22;156;48.738;9.228;2022-10-16T13:56:04;24.70;1.00
336;DHT22;156;48.738;9.228;2022-10-16T13:58:31;24.60;1.00
336;DHT22;156;48.738;9.228;2022-10-16T14:01:01;24.40;1.00
336;DHT22;156;48.738;9.228;2022-10-16T14:03:29;24.40;1.00
336;DHT22;156;48.738;9.228;2022-10-16T14:05:59;24.30;1.00
336;DHT22;156;48.738;9.228;2022-10-16T14:08:27;24.00;1.00
336;DHT22;156;48.738;9.228;2022-10-16T14:10:56;23.90;1.00
336;DHT22;156;48.738;9.228;2022-10-16T14:13:31;23.70;1.00
336;DHT22;156;48.738;9.228;2022-10-16T14:16:02;23.50;1.00
336;DHT22;156;48.738;9.228;2022-10-16T14:18:32;23.40;1.00
336;DHT22;156;48.738;9.228;2022-10-16T14:21:04;23.20;1.00
336;DHT22;156;48.738;9.228;2022-10-16T14:23:35;23.10;1.00
336;DHT22;156;48.738;9.228;2022-10-16T14:26:14;23.00;1.00
336;DHT22;156;48.738;9.228;2022-10-16T14:28:48;23.10;1.00
336;DHT22;156;48.738;9.228;2022-10-16T14:31:25;23.20;1.00
336;DHT22;156;48.738;9.228;2022-10-16T14:33:53;23.20;1.00
336;DHT22;156;48.738;9.228;2022-10-16T14:36:20;23.20;1.00
336;DHT22;156;48.738;9.228;2022-10-16T14:38:56;23.30;1.00
336;DHT22;156;48.738;9.228;2022-10-16T14:41:24;23.20;1.00
336;DHT22;156;48.738;9.228;2022-10-16T14:43:54;23.10;1.00
336;DHT22;156;48.738;9.228;2022-10-16T14:46:23;23.10;1.00
336;DHT22;156;48.738;9.228;2022-10-16T14:49:15;23.20;1.00
336;DHT22;156;48.738;9.228;2022-10-16T14:51:42;23.20;1.00
336;DHT22;156;48.738;9.228;2022-10-16T14:54:11;23.10;1.00
336;DHT22;156;48.738;9.228;2022-10-16T14:56:48;23.00;1.00
336;DHT22;156;48.738;9.228;2022-10-16T14:59:19;23.00;1.00
336;DHT22;156;48.738;9.228;2022-10-16T15:01:47;23.10;1.00
336;DHT22;156;48.738;9.228;2022-10-16T15:04:14;23.10;1.00
336;DHT22;156;48.738;9.228;2022-10-16T15:06:42;23.30;1.00
336;DHT22;156;48.738;9.228;2022-10-16T15:09:09;23.30;1.00
336;DHT22;156;48.738;9.228;2022-10-16T15:11:36;23.40;1.00
336;DHT22;156;48.738;9.228;2022-10-16T15:14:03;23.50;1.00
336;DHT22;156;48.738;9.228;2022-10-16T15:16:32;23.50;1.00
336;DHT22;156;48.738;9.228;2022-10-16T15:18:59;23.50;1.00
336;DHT22;156;48.738;9.228;2022-10-16T15:21:27;23.60;1.00
336;DHT22;156;48.738;9.228;2022-10-16T15:23:55;23.60;1.00
336;DHT22;156;48.738;9.228;2022-10-16T15:26:23;23.60;1.00
336;DHT22;156;48.738;9.228;2022-10-16T15:28:50;23.80;1.00
336;DHT22;156;48.738;9.228;2022-10-16T15:31:16;24.00;1.00
336;DHT22;156;48.738;9.228;2022-10-16T15:33:49;23.90;1.00
336;DHT22;156;48.738;9.228;2022-10-16T15:36:25;24.00;1.00
336;DHT22;156;48.738;9.228;2022-10-16T15:38:52;24.00;1.00
336;DHT22;156;48.738;9.228;2022-10-16T15:41:19;23.90;1.00
336;DHT22;156;48.738;9.228;2022-10-16T15:43:48;23.70;1.00
336;DHT22;156;48.738;9.228;2022-10-16T15:46:18;23.70;1.00
336;DHT22;156;48.738;9.228;2022-10-16T15:48:45;23.60;1.00
336;DHT22;156;48.738;9.228;2022-10-16T15:51:16;23.40;1.00
336;DHT22;156;48.738;9.228;2022-10-16T15:53:44;23.30;1.00
336;DHT22;156;48.738;9.228;2022-10-16T15:56:14;23.20;1.00
336;DHT22;156;48.738;9.228;2022-10-16T15:58:43;23.10;1.00
336;DHT22;156;48.738;9.228;2022-10-16T16:01:10;23.00;1.00
336;DHT22;156;48.738;9.228;2022-10-16T16:03:39;23.00;1.00
336;DHT22;156;48.738;9.228;2022-10-16T16:06:07;22.80;1.00
336;DHT22;156;48.738;9.228;2022-10-16T16:08:36;22.70;1.00
336;DHT22;156;48.738;9.228;2022-10-16T16:11:05;22.50;1.00
336;DHT22;156;48.738;9.228;2022-10-16T16:13:32;22.30;1.00
336;DHT22;156;48.738;9.228;2022-10-16T16:15:59;22.10;1.00
336;DHT22;156;48.738;9.228;2022-10-16T16:18:29;22.00;1.00
336;DHT22;156;48.738;9.228;2022-10-16T16:20:56;21.80;1.00
336;DHT22;156;48.738;9.228;2022-10-16T16:23:23;21.70;1.00
336;DHT22;156;48.738;9.228;2022-10-16T16:26:05;21.50;1.00
336;DHT22;156;48.738;9.228;2022-10-16T16:28:34;21.40;1.00
336;DHT22;156;48.738;9.228;2022-10-16T16:31:04;21.30;1.00
336;DHT22;156;48.738;9.228;2022-10-16T16:33:32;21.20;1.00
336;DHT22;156;48.738;9.228;2022-10-16T16:36:04;21.10;1.00
336;DHT22;156;48.738;9.228;2022-10-16T16:38:32;20.90;1.00
336;DHT22;156;48.738;9.228;2022-10-16T16:40:59;20.80;1.00
336;DHT22;156;48.738;9.228;2022-10-16T16:43:29;20.80;1.00
336;DHT22;156;48.738;9.228;2022-10-16T16:46:01;20.80;1.00
336;DHT22;156;48.738;9.228;2022-10-16T16:48:28;20.70;1.00
336;DHT22;156;48.738;9.228;2022-10-16T16:50:55;20.60;1.00
336;DHT22;156;48.738;9.228;2022-10-16T16:53:22;20.50;1.00
336;DHT22;156;48.738;9.228;2022-10-16T16:55:49;20.40;1.00
336;DHT22;156;48.738;9.228;2022-10-16T16:58:16;20.30;1.00
336;DHT22;156;48.738;9.228;2022-10-16T17:00:46;20.30;1.00
336;DHT22;156;48.738;9.228;2022-10-16T17:03:15;20.20;1.00
336;DHT22;156;48.738;9.228;2022-10-16T17:05:42;20.20;3.50
336;DHT22;156;48.738;9.228;2022-10-16T17:08:09;20.00;9.40
336;DHT22;156;48.738;9.228;2022-10-16T17:10:42;20.00;12.00
336;DHT22;156;48.738;9.228;2022-10-16T17:13:11;20.00;15.20
336;DHT22;156;48.738;9.228;2022-10-16T17:15:47;19.90;21.50
336;DHT22;156;48.738;9.228;2022-10-16T17:18:14;19.90;22.40
336;DHT22;156;48.738;9.228;2022-10-16T17:20:42;19.70;29.00
336;DHT22;156;48.738;9.228;2022-10-16T17:23:10;19.80;28.30
336;DHT22;156;48.738;9.228;2022-10-16T17:25:38;19.80;32.90
336;DHT22;156;48.738;9.228;2022-10-16T17:28:06;19.70;34.00
336;DHT22;156;48.738;9.228;2022-10-16T17:30:33;19.70;41.20
336;DHT22;156;48.738;9.228;2022-10-16T17:33:04;19.60;42.80
336;DHT22;156;48.738;9.228;2022-10-16T17:35:36;19.50;49.60
336;DHT22;156;48.738;9.228;2022-10-16T17:38:03;19.50;52.30
336;DHT22;156;48.738;9.228;2022-10-16T17:40:30;19.50;57.40
336;DHT22;156;48.738;9.228;2022-10-16T17:42:57;19.40;60.40
336;DHT22;156;48.738;9.228;2022-10-16T17:45:24;19.40;66.90
336;DHT22;156;48.738;9.228;2022-10-16T17:47:51;19.30;72.20
336;DHT22;156;48.738;9.228;2022-10-16T17:50:19;19.30;79.40
336;DHT22;156;48.738;9.228;2022-10-16T17:52:46;19.20;83.90
336;DHT22;156;48.738;9.228;2022-10-16T17:55:13;19.20;88.60
336;DHT22;156;48.738;9.228;2022-10-16T17:57:40;19.20;90.00
336;DHT22;156;48.738;9.228;2022-10-16T18:00:08;19.20;90.70
336;DHT22;156;48.738;9.228;2022-10-16T18:02:35;19.10;91.70
336;DHT22;156;48.738;9.228;2022-10-16T18:05:07;19.10;91.30